In Rescue
 
Open Full Screen Window  High Contrast Mode
Wind Gusting 00 knots
05
May 25, 2022 9:35 PM CDT
Weather Information
Wind Direction
  010 °
Wind Speed
  05 kt (6 mph)
Wind Gust
  00 kt (0 mph)
Altimeter
29.79 in
Visibility
10 SM
Temperature
11° C
52° F
Dewpoint
11° C
52° F
Humidity
100%
1hr Rain Fall
00.00 in.
24hr Rain Fall
00.39 in.
Sky Condition
Overcast @ 600 ft
IFR

METAR KAUM 260235Z AUTO 01005KT 10SM OVC006 11/11 A2979 RMK AO2

FAA Disclaimer: The data displayed is for advisory purposes only and is not to be used for flight planning or operations.